Time;durP1;ratioP1;P1;durP2;ratioP2;P2;SDS_P1;SDS_P2;PMS_P1;PMS_P2;Temp;Humidity;BMP_temperature;BMP_pressure;BME280_temperature;BME280_humidity;BME280_pressure;Samples;Min_cycle;Max_cycle;Signal;HPM_P1;HPM_P2
2023/12/04 00:01:50;;;;;;;;;;;0.30;99.90;;;;;;5067248;28;19935;-82
2023/12/04 00:04:15;;;;;;;;;;;0.70;99.90;;;;;;5053618;28;19967;-82
2023/12/04 00:06:41;;;;;;;;;;;0.20;99.90;;;;;;5052566;28;20051;-82
2023/12/04 00:09:07;;;;;;;;;;;0.20;99.90;;;;;;5068419;28;19931;-82
2023/12/04 00:11:33;;;;;;;;;;;0.30;99.90;;;;;;5068262;28;19977;-82
2023/12/04 00:13:59;;;;;;;;;;;0.60;99.90;;;;;;5053964;28;20408;-81
2023/12/04 00:16:25;;;;;;;;;;;1.70;99.90;;;;;;5066518;28;19967;-83
2023/12/04 00:18:50;;;;;;;;;;;0.20;99.90;;;;;;5055618;28;19974;-82
2023/12/04 00:21:16;;;;;;;;;;;1.40;99.90;;;;;;5054998;28;19977;-82
2023/12/04 00:23:42;;;;;;;;;;;1.20;99.90;;;;;;5070520;28;20267;-82
2023/12/04 00:26:07;;;;;;;;;;;0.30;99.90;;;;;;5052853;28;19932;-82
2023/12/04 00:28:35;;;;;;;;;;;0.30;99.90;;;;;;5074202;28;19973;-82
2023/12/04 00:31:01;;;;;;;;;;;1.80;99.90;;;;;;5074016;28;19973;-82
2023/12/04 00:33:26;;;;;;;;;;;0.30;99.90;;;;;;5058274;28;19932;-82
2023/12/04 00:35:52;;;;;;;;;;;0.40;99.90;;;;;;5060669;28;20347;-81
2023/12/04 00:38:18;;;;;;;;;;;0.30;99.90;;;;;;5072311;28;19927;-82
2023/12/04 00:40:44;;;;;;;;;;;0.30;99.90;;;;;;5091466;28;19969;-81
2023/12/04 00:43:09;;;;;;;;;;;1.80;99.90;;;;;;5075068;28;19931;-78
2023/12/04 00:45:35;;;;;;;;;;;0.30;99.90;;;;;;5093860;28;19924;-82
2023/12/04 00:48:02;;;;;;;;;;;0.30;99.90;;;;;;5081122;28;19932;-81
2023/12/04 00:50:27;;;;;;;;;;;0.30;99.90;;;;;;5081455;28;20009;-82
2023/12/04 00:52:53;;;;;;;;;;;1.90;99.90;;;;;;5083394;28;19950;-82
2023/12/04 00:55:19;;;;;;;;;;;0.30;99.90;;;;;;5079820;28;20019;-82
2023/12/04 00:57:44;;;;;;;;;;;1.70;99.90;;;;;;5079437;28;20371;-84
2023/12/04 01:00:10;;;;;;;;;;;1.70;99.90;;;;;;5044871;28;20018;-82
2023/12/04 01:02:36;;;;;;;;;;;0.30;99.90;;;;;;5058547;28;19928;-81
2023/12/04 01:05:01;;;;;;;;;;;0.30;99.90;;;;;;5088907;28;19934;-81
2023/12/04 01:07:27;;;;;;;;;;;0.30;99.90;;;;;;5040497;28;19927;-82
2023/12/04 01:09:53;;;;;;;;;;;0.80;99.90;;;;;;5075074;28;19931;-82
2023/12/04 01:12:18;;;;;;;;;;;0.90;99.90;;;;;;5062641;28;20494;-82
2023/12/04 01:14:44;;;;;;;;;;;1.90;99.90;;;;;;5053561;28;19984;-82
2023/12/04 01:17:10;;;;;;;;;;;1.30;99.90;;;;;;5071162;28;19935;-82
2023/12/04 01:19:35;;;;;;;;;;;1.40;99.90;;;;;;5058967;28;19952;-82
2023/12/04 01:22:01;;;;;;;;;;;0.50;99.90;;;;;;5067245;28;20604;-82
2023/12/04 01:24:27;;;;;;;;;;;0.80;99.90;;;;;;5064267;28;20708;-81
2023/12/04 01:26:53;;;;;;;;;;;0.40;99.90;;;;;;5066979;28;19932;-81
2023/12/04 01:29:18;;;;;;;;;;;0.50;99.90;;;;;;5056422;28;19924;-81
2023/12/04 01:31:44;;;;;;;;;;;1.50;99.90;;;;;;5055814;28;19932;-81
2023/12/04 01:34:10;;;;;;;;;;;1.20;99.90;;;;;;5073781;28;20267;-81
2023/12/04 01:36:35;;;;;;;;;;;1.80;99.90;;;;;;5076421;28;20599;-81
2023/12/04 01:39:01;;;;;;;;;;;1.10;99.90;;;;;;5054695;28;20011;-80
2023/12/04 01:41:26;;;;;;;;;;;1.50;99.90;;;;;;5071547;28;20480;-79
2023/12/04 01:43:53;;;;;;;;;;;0.80;99.90;;;;;;5037151;28;19935;-81
2023/12/04 01:46:19;;;;;;;;;;;0.30;99.90;;;;;;5072858;28;19932;-80
2023/12/04 01:48:46;;;;;;;;;;;0.40;99.90;;;;;;5076623;28;19947;-81
2023/12/04 01:51:12;;;;;;;;;;;0.70;99.90;;;;;;5074512;28;20059;-85
2023/12/04 01:53:38;;;;;;;;;;;0.70;99.90;;;;;;5055808;28;21024;-86
2023/12/04 01:56:05;;;;;;;;;;;0.60;99.90;;;;;;5063478;28;20011;-79
2023/12/04 01:58:31;;;;;;;;;;;0.40;99.90;;;;;;5058871;28;19928;-79
2023/12/04 02:00:57;;;;;;;;;;;0.90;99.90;;;;;;5053057;28;19943;-80
2023/12/04 02:03:23;;;;;;;;;;;0.40;99.90;;;;;;5056375;28;19931;-81
2023/12/04 02:05:50;;;;;;;;;;;0.40;99.90;;;;;;5070342;28;19928;-79
2023/12/04 02:08:16;;;;;;;;;;;1.40;99.90;;;;;;5057242;28;19928;-83
2023/12/04 02:10:41;;;;;;;;;;;0.40;99.90;;;;;;5039090;28;20439;-83
2023/12/04 02:13:07;;;;;;;;;;;0.80;99.90;;;;;;5070600;28;19927;-83
2023/12/04 02:15:33;;;;;;;;;;;1.70;99.90;;;;;;5053114;28;20211;-83
2023/12/04 02:17:58;;;;;;;;;;;0.40;99.90;;;;;;5057679;28;19928;-82
2023/12/04 02:20:34;;;;;;;;;;;0.40;99.90;;;;;;5072175;28;19939;-81
2023/12/04 02:23:00;;;;;;;;;;;0.40;99.90;;;;;;5071500;28;19924;-81
2023/12/04 02:25:26;;;;;;;;;;;2.10;99.90;;;;;;5068439;28;19932;-81
2023/12/04 02:27:52;;;;;;;;;;;0.80;99.90;;;;;;5055870;28;20028;-81
2023/12/04 02:30:19;;;;;;;;;;;0.60;99.90;;;;;;5051833;28;19975;-84
2023/12/04 02:32:46;;;;;;;;;;;0.50;99.90;;;;;;5077198;28;20282;-83
2023/12/04 02:35:12;;;;;;;;;;;0.40;99.90;;;;;;5064759;28;20007;-82
2023/12/04 02:37:39;;;;;;;;;;;0.40;99.90;;;;;;5052099;28;20249;-81
2023/12/04 02:40:06;;;;;;;;;;;0.90;99.90;;;;;;5073360;28;19928;-81
2023/12/04 02:42:32;;;;;;;;;;;0.40;99.90;;;;;;5069807;28;20345;-81
2023/12/04 02:44:57;;;;;;;;;;;0.40;99.90;;;;;;5056179;28;19931;-81
2023/12/04 02:47:23;;;;;;;;;;;0.40;99.90;;;;;;5059763;28;20774;-81
2023/12/04 02:49:49;;;;;;;;;;;1.40;99.90;;;;;;5068932;28;19991;-81
2023/12/04 02:52:14;;;;;;;;;;;1.40;99.90;;;;;;5052144;28;19939;-80
2023/12/04 02:54:40;;;;;;;;;;;1.00;99.90;;;;;;5057219;28;19924;-81
2023/12/04 02:57:05;;;;;;;;;;;0.80;99.90;;;;;;5052718;28;19973;-80
2023/12/04 02:59:31;;;;;;;;;;;2.20;99.90;;;;;;5056394;28;19932;-81
2023/12/04 03:01:57;;;;;;;;;;;0.40;99.90;;;;;;5073430;28;21345;-81
2023/12/04 03:04:22;;;;;;;;;;;0.80;99.90;;;;;;5070646;28;19930;-81
2023/12/04 03:06:48;;;;;;;;;;;1.40;99.90;;;;;;5067888;28;19957;-80
2023/12/04 03:09:13;;;;;;;;;;;0.80;99.90;;;;;;5059629;28;19928;-81
2023/12/04 03:11:40;;;;;;;;;;;1.70;99.90;;;;;;5059416;28;19946;-79
2023/12/04 03:14:05;;;;;;;;;;;0.40;99.90;;;;;;5055438;28;19934;-80
2023/12/04 03:16:31;;;;;;;;;;;0.40;99.90;;;;;;5071203;28;19924;-79
2023/12/04 03:18:57;;;;;;;;;;;0.70;99.90;;;;;;5068276;28;20215;-78
2023/12/04 03:21:23;;;;;;;;;;;1.70;99.90;;;;;;5069583;28;19939;-78
2023/12/04 03:23:48;;;;;;;;;;;2.30;99.90;;;;;;5054440;28;19966;-78
2023/12/04 03:26:14;;;;;;;;;;;1.40;99.90;;;;;;5067240;28;19933;-78
2023/12/04 03:28:40;;;;;;;;;;;0.90;99.90;;;;;;5068541;28;19939;-78
2023/12/04 03:31:06;;;;;;;;;;;0.40;99.90;;;;;;5066908;28;19932;-79
2023/12/04 03:33:31;;;;;;;;;;;0.30;99.90;;;;;;5075382;28;19934;-77
2023/12/04 03:35:59;;;;;;;;;;;0.40;99.90;;;;;;5069510;28;19928;-85
2023/12/04 03:38:24;;;;;;;;;;;1.00;99.90;;;;;;5075599;28;19996;-86
2023/12/04 03:40:51;;;;;;;;;;;2.30;99.90;;;;;;5043581;28;19928;-77
2023/12/04 03:43:17;;;;;;;;;;;0.40;99.90;;;;;;5084335;28;21851;-79
2023/12/04 03:45:43;;;;;;;;;;;0.40;99.90;;;;;;5067394;28;20001;-82
2023/12/04 03:48:08;;;;;;;;;;;0.40;99.90;;;;;;5069500;28;20008;-83
2023/12/04 03:50:34;;;;;;;;;;;1.20;99.90;;;;;;5068677;28;19923;-83
2023/12/04 03:52:59;;;;;;;;;;;1.10;99.90;;;;;;5038452;28;20069;-83
2023/12/04 03:55:25;;;;;;;;;;;0.50;99.90;;;;;;5074557;28;20384;-83
2023/12/04 03:57:56;;;;;;;;;;;0.40;99.90;;;;;;5055807;28;19932;-83
2023/12/04 04:00:22;;;;;;;;;;;0.40;99.90;;;;;;5075063;28;19976;-83
2023/12/04 04:02:48;;;;;;;;;;;0.40;99.90;;;;;;5078002;28;19959;-85
2023/12/04 04:05:14;;;;;;;;;;;0.40;99.90;;;;;;5058751;28;20015;-84
2023/12/04 04:07:40;;;;;;;;;;;0.40;99.90;;;;;;5049920;28;20007;-83
2023/12/04 04:10:06;;;;;;;;;;;0.50;99.90;;;;;;5057259;28;19935;-85
2023/12/04 04:12:32;;;;;;;;;;;0.40;99.90;;;;;;5059667;28;20284;-82
2023/12/04 04:14:58;;;;;;;;;;;2.10;99.90;;;;;;5071524;28;20016;-83
2023/12/04 04:17:26;;;;;;;;;;;0.40;99.90;;;;;;5053719;28;19935;-82
2023/12/04 04:19:52;;;;;;;;;;;2.20;99.90;;;;;;5058645;28;19928;-82
2023/12/04 04:22:19;;;;;;;;;;;1.90;99.90;;;;;;5050559;28;19947;-81
2023/12/04 04:24:44;;;;;;;;;;;0.40;99.90;;;;;;5063131;28;19949;-82
2023/12/04 04:27:10;;;;;;;;;;;0.70;99.90;;;;;;5074816;28;19932;-83
2023/12/04 04:29:35;;;;;;;;;;;0.40;99.90;;;;;;5057496;28;19924;-82
2023/12/04 04:32:02;;;;;;;;;;;0.70;99.90;;;;;;5053515;28;19967;-83
2023/12/04 04:34:28;;;;;;;;;;;0.40;99.90;;;;;;5089781;28;19975;-83
2023/12/04 04:36:53;;;;;;;;;;;1.30;99.90;;;;;;5046817;28;19982;-83
2023/12/04 04:39:19;;;;;;;;;;;2.00;99.90;;;;;;5073266;28;19928;-82
2023/12/04 04:41:45;;;;;;;;;;;0.40;99.90;;;;;;5047611;28;20036;-85
2023/12/04 04:44:11;;;;;;;;;;;1.60;99.90;;;;;;5070018;28;19934;-83
2023/12/04 04:46:37;;;;;;;;;;;0.40;99.90;;;;;;5093893;28;19927;-83
2023/12/04 04:49:06;;;;;;;;;;;2.40;99.90;;;;;;5093487;28;19981;-83
2023/12/04 04:51:33;;;;;;;;;;;0.40;99.90;;;;;;5062803;28;19927;-82
2023/12/04 04:53:59;;;;;;;;;;;0.30;99.90;;;;;;5072802;28;19935;-82
2023/12/04 04:56:24;;;;;;;;;;;0.30;99.90;;;;;;5074897;28;20333;-82
2023/12/04 04:58:50;;;;;;;;;;;0.40;99.90;;;;;;5059129;28;19984;-83
2023/12/04 05:01:15;;;;;;;;;;;0.40;99.90;;;;;;5041830;28;20378;-85
2023/12/04 05:03:41;;;;;;;;;;;0.40;99.90;;;;;;5055500;28;19930;-83
2023/12/04 05:06:07;;;;;;;;;;;0.40;99.90;;;;;;5095707;28;20021;-83
2023/12/04 05:08:33;;;;;;;;;;;0.40;99.90;;;;;;5064230;28;19928;-87
2023/12/04 05:10:58;;;;;;;;;;;1.30;99.90;;;;;;5064269;28;19939;-84
2023/12/04 05:13:24;;;;;;;;;;;0.90;99.90;;;;;;5079188;28;19923;-85
2023/12/04 05:15:49;;;;;;;;;;;0.40;99.90;;;;;;5045150;28;19995;-77
2023/12/04 05:18:15;;;;;;;;;;;0.50;99.90;;;;;;5077608;28;19924;-77
2023/12/04 05:20:40;;;;;;;;;;;1.50;99.90;;;;;;5075530;28;20388;-77
2023/12/04 05:23:06;;;;;;;;;;;0.40;99.90;;;;;;5070743;28;19932;-81
2023/12/04 05:25:32;;;;;;;;;;;0.40;99.90;;;;;;5079249;28;20038;-79
2023/12/04 05:27:57;;;;;;;;;;;0.40;99.90;;;;;;5075165;28;19928;-80
2023/12/04 05:30:23;;;;;;;;;;;0.40;99.90;;;;;;5072741;28;19934;-81
2023/12/04 05:32:49;;;;;;;;;;;0.40;99.90;;;;;;5072962;28;19927;-79
2023/12/04 05:35:15;;;;;;;;;;;0.40;99.90;;;;;;5088975;28;20213;-78
2023/12/04 05:37:40;;;;;;;;;;;0.40;99.90;;;;;;5075446;28;19931;-78
2023/12/04 05:40:06;;;;;;;;;;;0.40;99.90;;;;;;5058928;28;19932;-78
2023/12/04 05:42:32;;;;;;;;;;;0.40;99.90;;;;;;5091701;28;19935;-80
2023/12/04 05:44:57;;;;;;;;;;;0.40;99.90;;;;;;5076935;28;19936;-81
2023/12/04 05:47:23;;;;;;;;;;;2.50;99.90;;;;;;5047935;28;19954;-79
2023/12/04 05:49:49;;;;;;;;;;;0.40;99.90;;;;;;5092176;28;19943;-82
2023/12/04 05:52:14;;;;;;;;;;;0.40;99.90;;;;;;5077546;28;19927;-80
2023/12/04 05:54:40;;;;;;;;;;;0.40;99.90;;;;;;5064028;28;20381;-80
2023/12/04 05:57:05;;;;;;;;;;;0.40;99.90;;;;;;5046558;28;19932;-81
2023/12/04 05:59:31;;;;;;;;;;;0.40;99.90;;;;;;5091884;28;19934;-80
2023/12/04 06:01:57;;;;;;;;;;;1.20;99.90;;;;;;5062270;28;20666;-80
2023/12/04 06:04:22;;;;;;;;;;;1.10;99.90;;;;;;5045968;28;19930;-81
2023/12/04 06:06:48;;;;;;;;;;;2.70;99.90;;;;;;5079279;28;20141;-84
2023/12/04 06:09:17;;;;;;;;;;;1.70;99.90;;;;;;5072707;28;20025;-84
2023/12/04 06:11:43;;;;;;;;;;;0.40;99.90;;;;;;5066559;28;19943;-83
2023/12/04 06:14:09;;;;;;;;;;;2.20;99.90;;;;;;5044767;28;19928;-83
2023/12/04 06:16:35;;;;;;;;;;;0.40;99.90;;;;;;5059284;28;19963;-84
2023/12/04 06:19:00;;;;;;;;;;;0.50;99.90;;;;;;5056000;28;19923;-81
2023/12/04 06:21:26;;;;;;;;;;;1.80;99.90;;;;;;5057547;28;20310;-85
2023/12/04 06:23:52;;;;;;;;;;;0.40;99.90;;;;;;5063953;28;19924;-90
2023/12/04 06:26:17;;;;;;;;;;;0.40;99.90;;;;;;5057094;28;19928;-79
2023/12/04 06:28:45;;;;;;;;;;;0.40;99.90;;;;;;5068944;28;19931;-84
2023/12/04 06:31:11;;;;;;;;;;;0.40;99.90;;;;;;5064191;28;20873;-78
2023/12/04 06:33:37;;;;;;;;;;;0.40;99.90;;;;;;5036026;28;19928;-76
2023/12/04 06:36:04;;;;;;;;;;;0.40;99.90;;;;;;5058963;28;19935;-76
2023/12/04 06:38:31;;;;;;;;;;;0.40;99.90;;;;;;5039202;28;19975;-77
2023/12/04 06:40:57;;;;;;;;;;;0.40;99.90;;;;;;5080274;28;19931;-77
2023/12/04 06:43:23;;;;;;;;;;;1.50;99.90;;;;;;5064352;28;19924;-76
2023/12/04 06:45:48;;;;;;;;;;;0.40;99.90;;;;;;5063751;28;19932;-77
2023/12/04 06:48:15;;;;;;;;;;;-0.40;99.90;;;;;;5049008;28;19932;-77
2023/12/04 06:50:40;;;;;;;;;;;1.20;99.90;;;;;;5072289;28;19942;-77
2023/12/04 06:53:06;;;;;;;;;;;2.50;99.90;;;;;;5049856;28;20015;-77
2023/12/04 06:55:32;;;;;;;;;;;0.50;99.90;;;;;;5056075;28;20043;-77
2023/12/04 06:57:57;;;;;;;;;;;2.30;99.90;;;;;;5064474;28;19927;-77
2023/12/04 07:00:23;;;;;;;;;;;0.40;99.90;;;;;;5063864;28;19963;-77
2023/12/04 07:02:50;;;;;;;;;;;0.40;99.90;;;;;;5050942;28;19943;-77
2023/12/04 07:05:16;;;;;;;;;;;0.50;99.90;;;;;;5071921;28;19928;-77
2023/12/04 07:07:41;;;;;;;;;;;0.40;99.90;;;;;;5063358;28;19989;-80
2023/12/04 07:10:07;;;;;;;;;;;1.80;99.90;;;;;;5065393;28;19924;-77
2023/12/04 07:12:33;;;;;;;;;;;0.40;99.90;;;;;;5066084;28;19924;-77
2023/12/04 07:14:58;;;;;;;;;;;1.10;99.90;;;;;;5066530;28;19939;-78
2023/12/04 07:17:24;;;;;;;;;;;0.70;99.90;;;;;;5068043;28;19931;-79
2023/12/04 07:19:50;;;;;;;;;;;0.50;99.90;;;;;;5066491;28;19939;-79
2023/12/04 07:22:15;;;;;;;;;;;0.50;99.90;;;;;;5073606;28;20465;-79
2023/12/04 07:24:41;;;;;;;;;;;0.50;99.90;;;;;;5052967;28;19932;-80
2023/12/04 07:27:07;;;;;;;;;;;0.80;99.90;;;;;;5066193;28;19928;-79
2023/12/04 07:29:32;;;;;;;;;;;0.50;99.90;;;;;;5064918;28;19928;-79
2023/12/04 07:31:58;;;;;;;;;;;2.10;99.90;;;;;;5085692;28;20283;-79
2023/12/04 07:34:24;;;;;;;;;;;0.40;99.90;;;;;;5066239;28;19928;-79
2023/12/04 07:36:50;;;;;;;;;;;2.10;99.90;;;;;;5055698;28;19934;-76
2023/12/04 07:39:16;;;;;;;;;;;0.80;99.90;;;;;;5053962;28;19939;-79
2023/12/04 07:41:41;;;;;;;;;;;0.50;99.90;;;;;;5041743;28;19927;-79
2023/12/04 07:44:08;;;;;;;;;;;0.50;99.90;;;;;;5069386;28;19924;-79
2023/12/04 07:46:34;;;;;;;;;;;0.50;99.90;;;;;;5050278;28;19973;-78
2023/12/04 07:48:59;;;;;;;;;;;1.10;99.90;;;;;;5066280;28;19939;-79
2023/12/04 07:51:25;;;;;;;;;;;1.00;99.90;;;;;;5066471;28;19955;-78
2023/12/04 07:53:50;;;;;;;;;;;1.60;99.90;;;;;;5054793;28;20696;-79
2023/12/04 07:56:16;;;;;;;;;;;1.40;99.90;;;;;;5049867;28;19957;-79
2023/12/04 07:58:42;;;;;;;;;;;0.50;99.90;;;;;;5067386;28;20029;-78
2023/12/04 08:01:08;;;;;;;;;;;0.50;99.90;;;;;;5056276;28;19932;-79
2023/12/04 08:03:33;;;;;;;;;;;0.50;99.90;;;;;;5054594;28;19934;-78
2023/12/04 08:05:59;;;;;;;;;;;0.50;99.90;;;;;;5086297;28;19931;-78
2023/12/04 08:08:25;;;;;;;;;;;0.50;99.90;;;;;;5052400;28;20414;-78
2023/12/04 08:10:50;;;;;;;;;;;0.50;99.90;;;;;;5064811;28;20035;-79
2023/12/04 08:13:16;;;;;;;;;;;1.00;99.90;;;;;;5072415;28;19932;-79
2023/12/04 08:15:45;;;;;;;;;;;1.40;99.90;;;;;;5066916;28;19927;-78
2023/12/04 08:18:11;;;;;;;;;;;0.90;99.90;;;;;;5064870;28;19979;-78
2023/12/04 08:20:36;;;;;;;;;;;0.50;99.90;;;;;;5068377;28;19932;-78
2023/12/04 08:23:02;;;;;;;;;;;0.80;99.90;;;;;;5069121;28;20047;-78
2023/12/04 08:25:28;;;;;;;;;;;0.50;99.90;;;;;;5084228;28;19928;-79
2023/12/04 08:27:54;;;;;;;;;;;1.60;99.90;;;;;;5065419;28;20391;-78
2023/12/04 08:30:19;;;;;;;;;;;0.50;99.90;;;;;;5066589;28;19981;-78
2023/12/04 08:32:45;;;;;;;;;;;0.50;99.90;;;;;;5075237;28;20265;-78
2023/12/04 08:35:10;;;;;;;;;;;0.60;99.90;;;;;;5065190;28;19924;-77
2023/12/04 08:37:36;;;;;;;;;;;0.60;99.90;;;;;;5063858;28;19932;-79
2023/12/04 08:40:02;;;;;;;;;;;0.60;99.90;;;;;;5062632;28;19932;-79
2023/12/04 08:42:29;;;;;;;;;;;0.60;99.90;;;;;;5054499;28;19928;-79
2023/12/04 08:44:54;;;;;;;;;;;0.70;99.90;;;;;;5065598;28;20665;-79
2023/12/04 08:47:20;;;;;;;;;;;0.70;99.90;;;;;;5062059;28;19931;-78
2023/12/04 08:49:46;;;;;;;;;;;1.30;99.90;;;;;;5086288;28;19932;-78
2023/12/04 08:52:12;;;;;;;;;;;1.80;99.90;;;;;;5065190;28;21003;-78
2023/12/04 08:54:41;;;;;;;;;;;1.30;99.90;;;;;;5082526;28;19927;-77
2023/12/04 08:57:07;;;;;;;;;;;0.70;99.90;;;;;;5082288;28;20053;-78
2023/12/04 08:59:33;;;;;;;;;;;0.70;99.90;;;;;;5032782;28;20554;-78
2023/12/04 09:01:59;;;;;;;;;;;0.70;99.90;;;;;;5084198;28;20395;-78
2023/12/04 09:04:24;;;;;;;;;;;0.80;99.90;;;;;;5073907;28;20437;-78
2023/12/04 09:06:50;;;;;;;;;;;2.40;99.90;;;;;;5090547;28;19928;-77
2023/12/04 09:09:16;;;;;;;;;;;0.70;99.90;;;;;;5068643;28;19936;-79
2023/12/04 09:11:42;;;;;;;;;;;0.80;99.90;;;;;;5035623;28;19981;-78
2023/12/04 09:14:08;;;;;;;;;;;1.50;99.90;;;;;;5070084;28;19924;-79
2023/12/04 09:16:34;;;;;;;;;;;0.70;99.90;;;;;;5072378;28;19934;-79
2023/12/04 09:18:59;;;;;;;;;;;0.80;99.90;;;;;;5070629;28;19928;-78
2023/12/04 09:21:26;;;;;;;;;;;0.80;99.90;;;;;;5065273;28;19928;-79
2023/12/04 09:23:52;;;;;;;;;;;0.80;99.90;;;;;;5058361;28;19965;-79
2023/12/04 09:26:18;;;;;;;;;;;0.70;99.90;;;;;;5065599;28;20023;-78
2023/12/04 09:28:43;;;;;;;;;;;1.30;99.90;;;;;;5057695;28;19927;-79
2023/12/04 09:31:09;;;;;;;;;;;1.10;99.90;;;;;;5057097;28;20285;-78
2023/12/04 09:33:36;;;;;;;;;;;0.70;99.90;;;;;;5058707;28;19928;-79
2023/12/04 09:36:01;;;;;;;;;;;0.70;99.90;;;;;;5074843;28;19923;-78
2023/12/04 09:38:28;;;;;;;;;;;0.70;99.90;;;;;;5069211;28;19939;-79
2023/12/04 09:40:58;;;;;;;;;;;1.60;99.90;;;;;;5075420;28;20186;-79
2023/12/04 09:43:24;;;;;;;;;;;1.60;99.90;;;;;;5068555;28;20264;-78
2023/12/04 09:45:50;;;;;;;;;;;0.70;99.90;;;;;;5039158;28;19985;-79
2023/12/04 09:48:16;;;;;;;;;;;0.80;99.90;;;;;;5071127;28;20443;-79
2023/12/04 09:50:42;;;;;;;;;;;2.10;99.90;;;;;;5068292;28;20267;-79
2023/12/04 09:53:10;;;;;;;;;;;1.20;99.90;;;;;;5062729;28;20010;-79
2023/12/04 09:55:35;;;;;;;;;;;0.90;99.90;;;;;;5061761;28;19928;-79
2023/12/04 09:58:01;;;;;;;;;;;0.90;99.90;;;;;;5069531;28;20401;-80
2023/12/04 10:00:27;;;;;;;;;;;0.90;99.90;;;;;;5084452;28;20060;-80
2023/12/04 10:02:53;;;;;;;;;;;2.40;99.90;;;;;;5085615;28;20366;-81
2023/12/04 10:05:20;;;;;;;;;;;0.90;99.90;;;;;;5085321;28;19928;-80
2023/12/04 10:07:46;;;;;;;;;;;0.90;99.90;;;;;;5069171;28;19923;-80
2023/12/04 10:10:14;;;;;;;;;;;1.00;99.90;;;;;;5066468;28;19932;-79
2023/12/04 10:12:39;;;;;;;;;;;2.30;99.90;;;;;;5086885;28;20003;-81
2023/12/04 10:15:06;;;;;;;;;;;1.10;99.90;;;;;;5069088;28;19967;-82
2023/12/04 10:17:33;;;;;;;;;;;1.10;99.90;;;;;;5069403;28;19932;-81
2023/12/04 10:20:12;;;;;;;;;;;3.20;99.90;;;;;;5080777;28;19967;-80
2023/12/04 10:22:38;;;;;;;;;;;1.20;99.90;;;;;;5068234;28;20413;-81
2023/12/04 10:25:14;;;;;;;;;;;1.20;99.90;;;;;;5064392;28;19989;-81
2023/12/04 10:27:39;;;;;;;;;;;1.20;99.90;;;;;;5084392;28;19962;-81
2023/12/04 10:30:07;;;;;;;;;;;2.80;99.90;;;;;;5083527;28;20199;-81
2023/12/04 10:32:36;;;;;;;;;;;1.30;99.90;;;;;;5077251;28;19932;-81
2023/12/04 10:35:02;;;;;;;;;;;1.40;99.90;;;;;;5093670;28;19928;-80
2023/12/04 10:37:31;;;;;;;;;;;1.40;99.90;;;;;;5070531;28;19928;-80
2023/12/04 10:39:57;;;;;;;;;;;1.50;99.90;;;;;;5024218;28;19928;-81
2023/12/04 10:42:24;;;;;;;;;;;2.80;99.90;;;;;;5069917;28;19930;-80
2023/12/04 10:44:50;;;;;;;;;;;1.60;99.90;;;;;;5053265;28;19934;-81
2023/12/04 10:47:16;;;;;;;;;;;1.00;99.90;;;;;;5034660;28;20066;-80
2023/12/04 10:49:43;;;;;;;;;;;1.70;99.90;;;;;;5055778;28;19938;-81
2023/12/04 10:52:09;;;;;;;;;;;3.00;99.90;;;;;;5037471;28;20737;-81
2023/12/04 10:54:35;;;;;;;;;;;1.60;99.90;;;;;;5051126;28;19984;-79
2023/12/04 10:57:04;;;;;;;;;;;1.70;99.90;;;;;;5050169;28;20037;-80
2023/12/04 10:59:36;;;;;;;;;;;2.50;99.90;;;;;;5070476;28;20022;-80
2023/12/04 11:02:04;;;;;;;;;;;2.40;99.90;;;;;;5035656;28;19932;-79
2023/12/04 11:04:31;;;;;;;;;;;1.70;99.90;;;;;;5045958;28;19928;-80
2023/12/04 11:06:59;;;;;;;;;;;1.70;99.90;;;;;;5045526;28;20134;-80
2023/12/04 11:09:26;;;;;;;;;;;1.70;99.90;;;;;;5043417;28;19931;-82
2023/12/04 11:11:56;;;;;;;;;;;1.70;99.90;;;;;;5030811;28;20823;-80
2023/12/04 11:14:25;;;;;;;;;;;1.70;99.90;;;;;;5048951;28;20056;-79
2023/12/04 11:16:58;;;;;;;;;;;1.70;99.90;;;;;;5045253;28;20058;-79
2023/12/04 11:19:29;;;;;;;;;;;1.70;99.90;;;;;;5051043;28;19928;-82
2023/12/04 11:21:57;;;;;;;;;;;1.90;99.90;;;;;;5020744;28;19928;-82
2023/12/04 11:24:23;;;;;;;;;;;1.60;99.90;;;;;;5051223;28;23780;-81
2023/12/04 11:26:52;;;;;;;;;;;1.60;99.90;;;;;;5059696;28;19928;-82
2023/12/04 11:29:19;;;;;;;;;;;1.60;99.90;;;;;;5039576;28;19932;-80
2023/12/04 11:31:46;;;;;;;;;;;1.60;99.90;;;;;;5029254;28;19991;-80
2023/12/04 11:34:12;;;;;;;;;;;1.60;99.90;;;;;;5030682;28;20185;-80
2023/12/04 11:36:38;;;;;;;;;;;1.40;99.90;;;;;;5031721;28;20062;-80
2023/12/04 11:39:05;;;;;;;;;;;1.70;99.90;;;;;;5046652;28;19932;-80
2023/12/04 11:41:31;;;;;;;;;;;1.70;99.90;;;;;;5049345;28;19932;-80
2023/12/04 11:43:56;;;;;;;;;;;2.10;99.90;;;;;;5049158;28;19932;-80
2023/12/04 11:46:23;;;;;;;;;;;2.30;99.90;;;;;;5051131;28;20975;-81
2023/12/04 11:48:49;;;;;;;;;;;1.80;99.90;;;;;;5048836;28;20083;-80
2023/12/04 11:51:35;;;;;;;;;;;1.80;99.90;;;;;;5027255;28;19928;-81
2023/12/04 11:54:04;;;;;;;;;;;1.80;99.90;;;;;;5028056;28;19924;-81
2023/12/04 11:56:30;;;;;;;;;;;1.80;99.90;;;;;;5034791;28;20399;-81
2023/12/04 11:59:03;;;;;;;;;;;2.20;99.90;;;;;;5036979;28;20054;-79
2023/12/04 12:01:32;;;;;;;;;;;1.80;99.90;;;;;;5050923;28;19932;-81
2023/12/04 12:03:58;;;;;;;;;;;1.90;99.90;;;;;;5048659;28;19977;-81
2023/12/04 12:06:24;;;;;;;;;;;1.80;99.90;;;;;;5037249;28;20000;-81
2023/12/04 12:08:51;;;;;;;;;;;2.50;99.90;;;;;;5050724;28;19938;-80
2023/12/04 12:11:17;;;;;;;;;;;2.30;99.90;;;;;;5020099;28;19932;-80
2023/12/04 12:13:42;;;;;;;;;;;1.90;99.90;;;;;;5047739;28;20225;-80
2023/12/04 12:16:08;;;;;;;;;;;1.90;99.90;;;;;;5029240;28;19928;-82
2023/12/04 12:18:34;;;;;;;;;;;1.90;99.90;;;;;;5047446;28;19931;-81
2023/12/04 12:21:00;;;;;;;;;;;1.90;99.90;;;;;;5027212;28;19927;-80
2023/12/04 12:23:26;;;;;;;;;;;1.90;99.90;;;;;;5020216;28;20280;-80
2023/12/04 12:25:52;;;;;;;;;;;2.40;99.90;;;;;;5052185;28;20009;-80
2023/12/04 12:28:17;;;;;;;;;;;1.90;99.90;;;;;;5015128;28;19993;-80
2023/12/04 12:30:49;;;;;;;;;;;1.90;99.90;;;;;;5050883;28;20058;-81
2023/12/04 12:33:15;;;;;;;;;;;1.90;99.90;;;;;;5055707;28;19951;-81
2023/12/04 12:35:41;;;;;;;;;;;1.90;99.90;;;;;;5068238;28;19928;-80
2023/12/04 12:38:07;;;;;;;;;;;1.90;99.90;;;;;;5065120;28;19932;-81
2023/12/04 12:40:33;;;;;;;;;;;1.90;99.90;;;;;;5063069;28;19928;-80
2023/12/04 12:43:08;;;;;;;;;;;1.90;99.90;;;;;;5052662;28;19927;-80
2023/12/04 12:45:41;;;;;;;;;;;1.90;99.90;;;;;;5062166;28;19992;-79
2023/12/04 12:48:13;;;;;;;;;;;2.00;99.90;;;;;;5050558;28;20018;-79
2023/12/04 12:50:39;;;;;;;;;;;2.00;99.90;;;;;;5070732;28;20286;-80
2023/12/04 12:53:05;;;;;;;;;;;2.00;99.90;;;;;;5060119;28;19934;-80
2023/12/04 12:55:30;;;;;;;;;;;2.70;99.90;;;;;;5079783;28;19931;-79
2023/12/04 12:57:57;;;;;;;;;;;2.70;99.90;;;;;;5062743;28;19970;-79
2023/12/04 13:00:23;;;;;;;;;;;2.00;99.90;;;;;;5066360;28;19967;-78
2023/12/04 13:02:48;;;;;;;;;;;2.50;99.90;;;;;;5089357;28;20575;-80
2023/12/04 13:05:14;;;;;;;;;;;2.00;99.90;;;;;;5072584;28;19931;-80
2023/12/04 13:07:41;;;;;;;;;;;2.00;99.90;;;;;;5055962;28;20378;-80
2023/12/04 13:10:08;;;;;;;;;;;2.10;99.90;;;;;;5070781;28;19935;-79
2023/12/04 13:12:34;;;;;;;;;;;2.10;99.90;;;;;;5057860;28;19924;-79
2023/12/04 13:15:01;;;;;;;;;;;2.10;99.90;;;;;;5067498;28;19932;-80
2023/12/04 13:17:30;;;;;;;;;;;2.10;99.90;;;;;;5068830;28;20004;-80
2023/12/04 13:19:55;;;;;;;;;;;2.10;99.90;;;;;;5044028;28;19924;-79
2023/12/04 13:22:21;;;;;;;;;;;2.80;99.90;;;;;;5068619;28;20026;-78
2023/12/04 13:24:47;;;;;;;;;;;3.40;99.90;;;;;;5052828;28;20007;-80
2023/12/04 13:27:13;;;;;;;;;;;2.10;99.90;;;;;;5051685;28;19935;-81
2023/12/04 13:29:39;;;;;;;;;;;2.10;99.90;;;;;;5067542;28;20336;-83
2023/12/04 13:32:04;;;;;;;;;;;2.00;99.90;;;;;;5069601;28;19928;-82
2023/12/04 13:34:30;;;;;;;;;;;2.10;99.90;;;;;;5074935;28;19940;-81
2023/12/04 13:36:56;;;;;;;;;;;2.10;99.90;;;;;;5050794;28;19928;-80
2023/12/04 13:39:46;;;;;;;;;;;2.60;99.90;;;;;;5056152;28;20338;-80
2023/12/04 13:44:56;;;;;;;;;;;2.10;99.90;;;;;;5067569;28;20020;-80
2023/12/04 13:47:22;;;;;;;;;;;2.10;99.90;;;;;;5050474;28;19928;-80
2023/12/04 13:49:49;;;;;;;;;;;2.10;99.90;;;;;;5068517;28;20374;-79
2023/12/04 13:52:14;;;;;;;;;;;2.70;99.90;;;;;;5057130;28;20349;-80
2023/12/04 13:54:49;;;;;;;;;;;2.10;99.90;;;;;;5069758;28;19934;-81
2023/12/04 13:57:21;;;;;;;;;;;2.00;99.90;;;;;;5056738;28;19928;-80
2023/12/04 13:59:46;;;;;;;;;;;2.10;99.90;;;;;;5066490;28;20478;-80
2023/12/04 14:02:13;;;;;;;;;;;2.00;99.90;;;;;;5058640;28;19977;-81
2023/12/04 14:04:41;;;;;;;;;;;2.80;99.90;;;;;;5069641;28;19927;-80
2023/12/04 14:07:11;;;;;;;;;;;2.10;99.90;;;;;;5072109;28;19950;-80
2023/12/04 14:09:37;;;;;;;;;;;2.00;99.90;;;;;;5069301;28;19927;-80
2023/12/04 14:12:03;;;;;;;;;;;3.10;99.90;;;;;;5075253;28;20392;-80
2023/12/04 14:14:29;;;;;;;;;;;2.00;99.90;;;;;;5077188;28;19927;-79
2023/12/04 14:16:54;;;;;;;;;;;2.50;99.90;;;;;;5059164;28;19934;-80
2023/12/04 14:19:21;;;;;;;;;;;2.60;99.90;;;;;;5067190;28;20267;-80
2023/12/04 14:21:48;;;;;;;;;;;2.00;99.90;;;;;;5071091;28;19938;-80
2023/12/04 14:24:14;;;;;;;;;;;2.00;99.90;;;;;;5059169;28;19928;-80
2023/12/04 14:26:39;;;;;;;;;;;1.90;99.90;;;;;;5058294;28;19927;-80
2023/12/04 14:29:07;;;;;;;;;;;2.00;99.90;;;;;;5051038;28;20019;-81